Time;durP1;ratioP1;P1;durP2;ratioP2;P2;SDS_P1;SDS_P2;PMS_P1;PMS_P2;Temp;Humidity;BMP_temperature;BMP_pressure;BME280_temperature;BME280_humidity;BME280_pressure;Samples;Min_cycle;Max_cycle;Signal;HPM_P1;HPM_P2
2022/06/27 00:01:39;;;;;;;5.33;2.20;;;;;;;20.79;100.00;100268.09;1675472;84;21432;-56
2022/06/27 00:04:06;;;;;;;3.20;2.40;;;;;;;20.75;100.00;100265.67;1673263;84;21019;-56
2022/06/27 00:06:33;;;;;;;5.10;1.80;;;;;;;20.76;100.00;100267.79;1672710;84;21396;-55
2022/06/27 00:09:00;;;;;;;3.90;2.60;;;;;;;20.71;100.00;100273.05;1673852;84;21165;-64
2022/06/27 00:11:28;;;;;;;5.50;1.80;;;;;;;20.61;100.00;100268.47;1661985;84;21078;-55
2022/06/27 00:13:55;;;;;;;4.27;2.83;;;;;;;20.61;100.00;100271.91;1672753;84;21056;-60
2022/06/27 00:16:22;;;;;;;3.43;2.10;;;;;;;20.58;100.00;100275.05;1714552;82;21586;-55
2022/06/27 00:18:50;;;;;;;4.73;2.17;;;;;;;20.60;100.00;100273.46;1716667;83;20982;-55
2022/06/27 00:21:19;;;;;;;3.37;2.20;;;;;;;20.63;100.00;100276.94;1681047;83;20992;-65
2022/06/27 00:23:48;;;;;;;3.97;2.20;;;;;;;20.63;100.00;100275.63;1709501;82;21000;-57
2022/06/27 00:26:15;;;;;;;2.87;1.97;;;;;;;20.59;100.00;100273.99;1712136;82;20974;-56
2022/06/27 00:28:43;;;;;;;4.30;2.60;;;;;;;20.52;100.00;100280.00;1711420;82;21042;-57
2022/06/27 00:31:10;;;;;;;4.27;2.20;;;;;;;20.52;100.00;100283.17;1713336;82;21050;-56
2022/06/27 00:33:37;;;;;;;3.33;2.00;;;;;;;20.48;100.00;100276.75;1715948;82;21834;-61
2022/06/27 00:36:05;;;;;;;4.13;2.30;;;;;;;20.44;100.00;100281.73;1716119;82;21070;-57
2022/06/27 00:38:32;;;;;;;3.20;2.07;;;;;;;20.37;100.00;100280.59;1705822;83;21084;-58
2022/06/27 00:40:59;;;;;;;3.60;2.27;;;;;;;20.35;100.00;100288.00;1679805;83;21015;-56
2022/06/27 00:43:27;;;;;;;2.80;2.10;;;;;;;20.34;100.00;100277.64;1671946;83;21626;-55
2022/06/27 00:45:54;;;;;;;3.50;2.30;;;;;;;20.31;100.00;100285.56;1713163;82;21136;-63
2022/06/27 00:48:21;;;;;;;3.53;2.53;;;;;;;20.28;100.00;100278.11;1712554;82;22018;-56
2022/06/27 00:50:48;;;;;;;5.47;2.37;;;;;;;20.28;100.00;100286.58;1715887;82;21004;-56
2022/06/27 00:53:16;;;;;;;6.30;2.47;;;;;;;20.24;100.00;100290.24;1687586;83;21551;-59
2022/06/27 00:55:43;;;;;;;3.50;1.97;;;;;;;20.23;100.00;100287.83;1711786;82;21583;-65
2022/06/27 00:58:11;;;;;;;3.07;2.00;;;;;;;20.23;100.00;100292.62;1686931;83;21112;-56
2022/06/27 01:00:38;;;;;;;5.47;2.13;;;;;;;20.21;100.00;100285.44;1711747;82;21531;-59
2022/06/27 01:03:06;;;;;;;3.47;2.17;;;;;;;20.19;100.00;100296.77;1714731;82;21069;-56
2022/06/27 01:05:34;;;;;;;4.87;1.90;;;;;;;20.15;100.00;100295.17;1713239;82;21075;-56
2022/06/27 01:08:01;;;;;;;3.93;2.47;;;;;;;20.17;100.00;100297.56;1712421;82;21590;-59
2022/06/27 01:10:29;;;;;;;3.93;2.30;;;;;;;20.16;100.00;100301.27;1714314;82;21145;-56
2022/06/27 01:12:56;;;;;;;3.07;1.97;;;;;;;20.13;100.00;100290.63;1714312;82;20991;-58
2022/06/27 01:15:23;;;;;;;4.70;2.33;;;;;;;20.10;100.00;100296.41;1712057;82;21082;-56
2022/06/27 01:17:51;;;;;;;3.40;2.23;;;;;;;20.08;100.00;100298.52;1713012;82;21090;-57
2022/06/27 01:20:18;;;;;;;3.67;1.80;;;;;;;20.08;100.00;100308.30;1713412;82;21172;-57
2022/06/27 01:22:45;;;;;;;5.40;2.10;;;;;;;20.05;100.00;100300.32;1711750;82;22490;-57
2022/06/27 01:25:14;;;;;;;5.77;2.30;;;;;;;20.05;100.00;100307.46;1714404;82;21030;-56
2022/06/27 01:27:41;;;;;;;5.57;2.03;;;;;;;20.05;100.00;100309.58;1712095;82;20958;-64
2022/06/27 01:30:09;;;;;;;3.17;1.97;;;;;;;20.04;100.00;100317.25;1685953;82;22699;-64
2022/06/27 01:32:38;;;;;;;2.93;2.00;;;;;;;20.05;100.00;100313.55;1712516;83;21069;-55
2022/06/27 01:35:06;;;;;;;3.93;1.87;;;;;;;20.02;100.00;100315.36;1714723;82;21245;-56
2022/06/27 01:37:34;;;;;;;5.77;2.27;;;;;;;20.00;100.00;100313.98;1712482;82;20994;-56
2022/06/27 01:40:01;;;;;;;4.60;2.20;;;;;;;19.97;100.00;100312.65;1707172;82;20887;-63
2022/06/27 01:42:31;;;;;;;3.70;2.00;;;;;;;19.96;100.00;100302.30;1714354;82;21430;-63
2022/06/27 01:44:58;;;;;;;2.63;1.90;;;;;;;19.96;100.00;100316.32;1681207;85;21492;-57
2022/06/27 01:47:27;;;;;;;4.13;2.00;;;;;;;19.99;100.00;100315.84;1660126;84;21163;-54
2022/06/27 01:49:56;;;;;;;4.72;2.42;;;;;;;19.99;100.00;100320.33;1715961;83;21007;-64
2022/06/27 01:52:25;;;;;;;2.87;1.90;;;;;;;19.98;100.00;100318.22;1714604;82;21137;-56
2022/06/27 01:54:52;;;;;;;5.47;2.27;;;;;;;20.03;100.00;100319.59;1712004;82;20967;-58
2022/06/27 01:57:19;;;;;;;7.10;2.53;;;;;;;20.07;100.00;100321.23;1717610;82;21846;-57
2022/06/27 01:59:48;;;;;;;3.80;2.00;;;;;;;20.14;100.00;100326.62;1703935;83;22270;-55
2022/06/27 02:02:16;;;;;;;4.43;2.13;;;;;;;20.37;100.00;100321.63;1682054;83;21533;-56
2022/06/27 02:04:43;;;;;;;3.53;2.10;;;;;;;20.66;100.00;100317.51;1703168;82;21063;-64
2022/06/27 02:07:11;;;;;;;4.83;2.30;;;;;;;21.02;100.00;100320.52;1656286;85;21129;-56
2022/06/27 02:09:38;;;;;;;3.93;2.40;;;;;;;21.42;100.00;100312.16;1624655;87;21158;-55
2022/06/27 02:12:21;;;;;;;6.30;2.40;;;;;;;21.74;100.00;100317.42;1645288;85;22262;-56
2022/06/27 02:14:53;;;;;;;5.58;2.30;;;;;;;22.04;100.00;100322.65;1646681;85;21020;-64
2022/06/27 02:17:22;;;;;;;6.97;2.97;;;;;;;22.38;100.00;100326.30;1645539;85;21444;-56
2022/06/27 02:19:50;;;;;;;2.47;1.90;;;;;;;22.67;100.00;100328.80;1645371;87;21545;-63
2022/06/27 02:22:17;;;;;;;3.50;2.40;;;;;;;22.99;100.00;100319.32;1646606;85;21568;-55
2022/06/27 02:24:46;;;;;;;5.87;2.10;;;;;;;23.34;100.00;100317.78;1646857;85;21782;-56
2022/06/27 02:27:13;;;;;;;4.13;2.20;;;;;;;23.65;100.00;100315.09;1645002;85;21484;-57
2022/06/27 02:29:41;;;;;;;4.43;2.90;;;;;;;23.73;100.00;100311.37;1638538;85;21105;-55
2022/06/27 02:32:08;;;;;;;5.77;2.20;;;;;;;23.78;100.00;100307.91;1645678;85;21114;-55
2022/06/27 02:34:37;;;;;;;5.70;2.40;;;;;;;23.99;100.00;100300.68;1646910;85;21975;-57
2022/06/27 02:37:05;;;;;;;3.50;2.37;;;;;;;24.38;100.00;100300.79;1646504;85;21309;-55
2022/06/27 02:39:36;;;;;;;4.03;2.20;;;;;;;24.84;100.00;100307.23;1647099;85;21529;-58
2022/06/27 02:42:03;;;;;;;6.00;2.30;;;;;;;25.21;100.00;100310.73;1627550;86;20995;-62
2022/06/27 02:44:31;;;;;;;4.00;2.30;;;;;;;25.46;91.91;100315.61;1655604;86;21546;-55
2022/06/27 02:46:59;;;;;;;3.73;2.20;;;;;;;25.50;87.73;100313.19;1656549;85;21044;-57
2022/06/27 02:49:26;;;;;;;4.27;2.37;;;;;;;25.53;85.03;100323.27;1646806;85;21239;-56
2022/06/27 02:52:14;;;;;;;3.57;2.10;;;;;;;25.60;84.00;100324.53;1646235;85;21147;-63
2022/06/27 02:54:50;;;;;;;3.77;2.30;;;;;;;25.70;82.27;100324.45;1685207;83;21086;-65
2022/06/27 02:57:43;;;;;;;6.30;2.40;;;;;;;26.00;81.45;100323.12;1688071;83;21419;-57
2022/06/27 03:00:12;;;;;;;3.20;2.40;;;;;;;26.28;73.64;100320.91;1656430;85;21193;-55
2022/06/27 03:02:41;;;;;;;4.47;2.25;;;;;;;26.57;69.01;100324.06;1645103;86;21758;-56
2022/06/27 03:05:22;;;;;;;3.33;2.20;;;;;;;26.77;67.29;100323.77;1662575;84;21192;-56
2022/06/27 03:07:50;;;;;;;3.80;1.85;;;;;;;27.00;64.99;100317.28;1675263;84;20975;-56
2022/06/27 03:10:18;;;;;;;3.67;2.08;;;;;;;27.20;62.78;100318.36;1676509;84;21018;-57
2022/06/27 03:12:47;;;;;;;2.77;2.33;;;;;;;27.37;61.99;100319.92;1675826;84;21043;-56
2022/06/27 03:15:16;;;;;;;3.75;2.33;;;;;;;27.63;60.37;100313.59;1676596;84;21645;-56
2022/06/27 03:17:47;;;;;;;3.12;2.10;;;;;;;27.83;57.71;100304.41;1714157;82;21050;-56
2022/06/27 03:20:29;;;;;;;3.92;2.20;;;;;;;27.97;57.27;100309.78;1715304;82;21536;-55
2022/06/27 03:23:05;;;;;;;3.22;2.33;;;;;;;28.27;54.80;100307.58;1712161;82;21156;-57
2022/06/27 03:25:34;;;;;;;4.20;2.45;;;;;;;28.50;53.92;100311.94;1715558;82;21073;-56
2022/06/27 03:28:01;;;;;;;4.90;2.30;;;;;;;28.71;52.45;100317.63;1716503;82;21133;-65
2022/06/27 03:30:29;;;;;;;3.72;2.33;;;;;;;28.97;51.79;100315.16;1716984;82;21065;-56
2022/06/27 03:32:56;;;;;;;6.60;2.83;;;;;;;29.16;49.53;100305.61;1714707;82;21045;-55
2022/06/27 03:35:25;;;;;;;3.33;2.08;;;;;;;29.28;48.80;100312.58;1717632;82;20986;-56
2022/06/27 03:37:54;;;;;;;3.10;2.42;;;;;;;29.38;48.89;100313.41;1713076;82;21088;-61
2022/06/27 03:40:23;;;;;;;5.05;2.20;;;;;;;29.55;48.58;100312.16;1712749;82;23018;-58
2022/06/27 03:42:51;;;;;;;4.60;2.75;;;;;;;29.83;48.37;100313.34;1715652;82;21014;-57
2022/06/27 03:45:18;;;;;;;3.70;2.83;;;;;;;30.16;46.86;100310.55;1713723;83;21453;-58
2022/06/27 03:47:55;;;;;;;3.80;2.30;;;;;;;30.44;46.58;100308.92;1714042;82;21058;-57
2022/06/27 03:50:24;;;;;;;3.65;2.47;;;;;;;30.66;44.72;100310.69;1709955;82;21494;-56
2022/06/27 03:52:55;;;;;;;4.20;2.37;;;;;;;30.91;43.92;100312.62;1717374;82;22467;-57
2022/06/27 03:55:23;;;;;;;3.30;2.47;;;;;;;31.10;42.86;100306.08;1713050;82;21042;-56
2022/06/27 03:57:57;;;;;;;4.58;2.00;;;;;;;31.19;42.38;100309.56;1715279;82;20891;-63
2022/06/27 04:00:31;;;;;;;4.03;2.62;;;;;;;31.15;42.50;100312.10;1676095;84;21544;-64
2022/06/27 04:02:57;;;;;;;7.50;2.65;;;;;;;31.13;41.92;100316.22;1675950;84;21105;-57
2022/06/27 04:05:29;;;;;;;5.83;2.58;;;;;;;31.02;42.18;100324.62;1682234;83;22082;-56
2022/06/27 04:07:56;;;;;;;4.83;1.90;;;;;;;31.00;43.36;100324.72;1658580;85;21613;-58
2022/06/27 04:10:25;;;;;;;3.90;2.35;;;;;;;31.30;42.54;100323.48;1682918;83;22213;-64
2022/06/27 04:12:52;;;;;;;4.97;2.00;;;;;;;31.39;41.66;100340.44;1686418;83;21355;-59
2022/06/27 04:15:38;;;;;;;5.08;2.00;;;;;;;31.27;41.43;100343.77;1687665;83;21066;-64
2022/06/27 04:18:05;;;;;;;4.08;2.20;;;;;;;30.91;42.12;100344.92;1657588;85;21228;-58
2022/06/27 04:20:42;;;;;;;4.17;2.40;;;;;;;30.93;42.46;100344.59;1663879;84;21059;-58
2022/06/27 04:23:09;;;;;;;4.30;2.47;;;;;;;31.01;42.20;100335.72;1659172;85;20942;-56
2022/06/27 04:25:53;;;;;;;3.42;2.15;;;;;;;31.19;42.80;100334.59;1640551;85;21129;-57
2022/06/27 04:28:21;;;;;;;4.58;2.00;;;;;;;31.68;41.77;100328.95;1650894;85;21576;-56
2022/06/27 04:30:48;;;;;;;4.72;2.15;;;;;;;32.00;40.59;100325.42;1688021;83;21099;-56
2022/06/27 04:33:16;;;;;;;3.85;1.82;;;;;;;32.05;40.30;100340.05;1664473;83;21349;-57
2022/06/27 04:35:46;;;;;;;3.60;2.08;;;;;;;32.08;40.54;100340.75;1687762;83;21126;-59
2022/06/27 04:38:14;;;;;;;3.50;1.90;;;;;;;32.18;40.47;100340.39;1687195;83;21063;-64
2022/06/27 04:40:43;;;;;;;3.05;2.15;;;;;;;32.35;39.00;100338.13;1686461;84;21063;-57
2022/06/27 04:43:11;;;;;;;4.53;1.98;;;;;;;32.39;39.89;100336.36;1684742;83;21137;-58
2022/06/27 04:45:39;;;;;;;3.15;2.35;;;;;;;32.50;38.70;100336.23;1686567;84;21032;-66
2022/06/27 04:48:10;;;;;;;3.70;2.40;;;;;;;32.46;38.00;100335.31;1688020;83;21062;-56
2022/06/27 04:50:40;;;;;;;5.55;2.37;;;;;;;32.29;38.60;100345.64;1659319;84;21023;-57
2022/06/27 04:53:07;;;;;;;3.33;2.08;;;;;;;32.32;39.15;100346.34;1684607;83;21827;-56
2022/06/27 04:55:34;;;;;;;4.72;2.00;;;;;;;32.60;38.54;100345.30;1677544;83;21264;-56
2022/06/27 04:58:01;;;;;;;3.33;2.10;;;;;;;32.80;38.11;100343.70;1687865;83;20991;-59
2022/06/27 05:00:29;;;;;;;6.00;2.08;;;;;;;32.91;37.61;100345.45;1687843;83;21082;-58
2022/06/27 05:03:04;;;;;;;3.85;2.20;;;;;;;32.95;38.01;100347.73;1688501;83;21082;-58
2022/06/27 05:05:32;;;;;;;4.55;2.62;;;;;;;33.26;37.96;100342.44;1688030;83;21010;-58
2022/06/27 05:08:00;;;;;;;4.72;2.50;;;;;;;33.56;36.75;100347.94;1688914;83;21208;-58
2022/06/27 05:10:28;;;;;;;4.28;2.42;;;;;;;33.57;37.15;100341.43;1653165;86;22249;-60
2022/06/27 05:12:56;;;;;;;3.45;2.30;;;;;;;33.81;36.55;100342.58;1688256;83;21880;-56
2022/06/27 05:15:23;;;;;;;4.17;1.87;;;;;;;34.01;35.46;100338.98;1687001;84;21600;-56
2022/06/27 05:17:50;;;;;;;4.42;2.20;;;;;;;33.98;35.44;100343.75;1688418;83;20915;-55
2022/06/27 05:20:17;;;;;;;4.10;1.82;;;;;;;33.85;35.73;100337.50;1686942;84;21154;-65
2022/06/27 05:22:44;;;;;;;5.08;1.90;;;;;;;34.07;36.01;100338.21;1687637;84;21465;-57
2022/06/27 05:25:12;;;;;;;3.95;2.27;;;;;;;34.47;35.11;100340.95;1689955;83;21002;-57
2022/06/27 05:27:39;;;;;;;3.52;2.12;;;;;;;34.42;34.87;100344.47;1688638;83;21086;-56
2022/06/27 05:30:08;;;;;;;3.30;2.10;;;;;;;34.31;35.01;100339.52;1689433;83;21016;-58
2022/06/27 05:32:35;;;;;;;4.47;2.50;;;;;;;34.26;35.46;100337.62;1681290;84;21226;-57
2022/06/27 05:35:06;;;;;;;3.20;2.10;;;;;;;34.39;35.80;100338.59;1689272;83;20998;-57
2022/06/27 05:37:35;;;;;;;4.60;2.20;;;;;;;34.51;34.85;100347.84;1688684;83;21046;-57
2022/06/27 05:40:03;;;;;;;3.47;2.20;;;;;;;34.64;34.69;100352.11;1689060;83;21000;-58
2022/06/27 05:42:32;;;;;;;4.72;2.15;;;;;;;34.63;34.92;100349.20;1687496;83;21014;-63
2022/06/27 05:44:59;;;;;;;3.02;2.00;;;;;;;34.75;34.54;100360.55;1688343;83;21657;-58
2022/06/27 05:47:28;;;;;;;7.67;3.25;;;;;;;34.70;34.00;100358.06;1648750;85;21510;-57
2022/06/27 05:50:07;;;;;;;4.25;2.22;;;;;;;34.80;34.98;100352.17;1650678;83;21492;-61
2022/06/27 05:52:36;;;;;;;4.62;2.20;;;;;;;35.00;33.77;100351.20;1687612;83;21015;-58
2022/06/27 05:55:05;;;;;;;3.40;2.25;;;;;;;34.90;33.73;100347.62;1689274;83;21539;-59
2022/06/27 05:57:32;;;;;;;6.15;2.72;;;;;;;34.72;34.50;100347.12;1687974;83;21230;-58
2022/06/27 06:00:00;;;;;;;3.27;2.35;;;;;;;34.74;34.61;100347.58;1688456;83;21424;-58
2022/06/27 06:02:29;;;;;;;3.45;1.95;;;;;;;34.96;34.87;100344.88;1677427;83;20992;-59
2022/06/27 06:04:59;;;;;;;5.95;2.50;;;;;;;35.14;34.03;100352.73;1688480;83;21941;-57
2022/06/27 06:07:27;;;;;;;3.60;2.90;;;;;;;35.14;33.40;100345.96;1685064;83;26744;-58
2022/06/27 06:09:55;;;;;;;4.78;2.60;;;;;;;35.17;33.77;100346.63;1713293;82;21191;-67
2022/06/27 06:12:22;;;;;;;4.65;2.55;;;;;;;35.27;34.36;100348.81;1714971;82;22314;-61
2022/06/27 06:14:52;;;;;;;4.67;3.00;;;;;;;35.73;33.07;100351.38;1716572;82;21435;-56
2022/06/27 06:17:19;;;;;;;6.25;3.40;;;;;;;35.86;32.14;100345.28;1712087;82;21098;-57
2022/06/27 06:19:46;;;;;;;5.83;3.35;;;;;;;35.72;31.83;100349.00;1714726;82;21075;-57
2022/06/27 06:22:13;;;;;;;6.92;3.35;;;;;;;35.62;32.43;100350.91;1710906;82;21299;-65
2022/06/27 06:24:40;;;;;;;8.00;3.67;;;;;;;35.73;32.51;100361.45;1710104;82;21065;-58
2022/06/27 06:27:07;;;;;;;5.17;3.10;;;;;;;35.38;31.78;100365.36;1716121;83;21061;-56
2022/06/27 06:29:36;;;;;;;5.80;3.22;;;;;;;34.86;33.07;100360.28;1705767;82;21069;-57
2022/06/27 06:32:04;;;;;;;4.85;2.87;;;;;;;34.95;33.45;100356.85;1716686;82;20987;-62
2022/06/27 06:34:32;;;;;;;5.92;4.10;;;;;;;35.21;32.87;100362.41;1711273;82;21501;-60
2022/06/27 06:36:59;;;;;;;5.60;3.58;;;;;;;35.32;33.38;100365.63;1714162;82;21300;-58
2022/06/27 06:39:26;;;;;;;7.65;3.90;;;;;;;35.44;32.95;100366.69;1677900;83;21066;-57
2022/06/27 06:41:53;;;;;;;5.58;4.20;;;;;;;35.48;33.12;100364.28;1712430;82;21584;-59
2022/06/27 06:44:22;;;;;;;6.37;4.58;;;;;;;35.70;34.28;100361.57;1711154;82;21006;-60
2022/06/27 06:46:52;;;;;;;5.50;3.75;;;;;;;36.20;33.31;100361.98;1711176;82;21152;-57
2022/06/27 06:49:22;;;;;;;;;;;;;;;36.50;31.36;100360.91;1710428;82;21602;-57
2022/06/27 06:51:49;;;;;;;8.93;3.95;;;;;;;36.26;31.11;100364.07;1712076;82;20158;-57
2022/06/27 06:54:20;;;;;;;5.70;4.03;;;;;;;35.93;31.44;100366.37;1709472;82;21137;-58
2022/06/27 06:56:46;;;;;;;7.42;4.05;;;;;;;35.71;32.53;100367.20;1713002;82;21089;-57
2022/06/27 06:59:14;;;;;;;8.25;4.95;;;;;;;35.53;32.71;100368.68;1716577;82;21471;-56
2022/06/27 07:01:43;;;;;;;9.33;5.97;;;;;;;35.65;32.13;100365.09;1715931;82;22143;-59
2022/06/27 07:04:11;;;;;;;9.85;6.55;;;;;;;35.77;32.03;100367.17;1710124;82;20978;-64
2022/06/27 07:06:40;;;;;;;12.40;7.70;;;;;;;35.71;31.04;100366.42;1715354;82;21092;-66
2022/06/27 07:09:07;;;;;;;9.30;5.75;;;;;;;35.71;30.83;100359.07;1714456;82;21161;-59
2022/06/27 07:11:39;;;;;;;10.85;5.15;;;;;;;35.72;31.69;100367.98;1716726;82;21177;-58
2022/06/27 07:14:06;;;;;;;7.05;5.47;;;;;;;35.87;32.02;100362.34;1715028;82;21025;-58
2022/06/27 07:16:35;;;;;;;11.18;7.60;;;;;;;36.10;31.54;100367.94;1711695;82;21716;-61
2022/06/27 07:19:06;;;;;;;9.10;7.53;;;;;;;36.38;30.68;100363.16;1714427;82;21085;-57
2022/06/27 07:21:34;;;;;;;9.05;6.45;;;;;;;36.56;30.35;100355.98;1711925;82;21887;-59
2022/06/27 07:24:01;;;;;;;9.38;6.78;;;;;;;36.43;30.83;100368.87;1707618;82;21228;-58
2022/06/27 07:26:29;;;;;;;11.25;6.78;;;;;;;36.26;30.88;100359.22;1716502;82;21819;-58
2022/06/27 07:28:57;;;;;;;8.55;5.95;;;;;;;36.36;31.40;100359.22;1709157;82;21125;-61
2022/06/27 07:31:25;;;;;;;10.50;6.70;;;;;;;36.43;30.59;100368.30;1713156;82;21482;-59
2022/06/27 07:33:54;;;;;;;9.43;6.92;;;;;;;36.25;29.45;100357.05;1711728;82;20943;-59
2022/06/27 07:36:22;;;;;;;10.00;5.45;;;;;;;35.98;29.74;100375.05;1714678;82;21166;-58
2022/06/27 07:38:53;;;;;;;7.08;5.95;;;;;;;35.78;29.33;100367.38;1715996;82;21010;-59
2022/06/27 07:41:21;;;;;;;7.33;5.20;;;;;;;35.68;30.34;100371.19;1709169;82;20992;-58
2022/06/27 07:43:48;;;;;;;9.53;5.53;;;;;;;35.65;29.66;100372.69;1712395;82;21520;-57
2022/06/27 07:46:17;;;;;;;7.65;5.20;;;;;;;35.36;29.91;100377.92;1714061;82;21583;-57
2022/06/27 07:48:47;;;;;;;11.53;6.78;;;;;;;35.14;31.23;100369.00;1707280;82;21300;-60
2022/06/27 07:51:19;;;;;;;6.40;4.83;;;;;;;35.15;30.63;100369.20;1714586;82;21066;-59
2022/06/27 07:53:47;;;;;;;8.65;5.10;;;;;;;35.17;30.65;100365.60;1712000;82;21086;-57
2022/06/27 07:56:16;;;;;;;6.47;4.83;;;;;;;35.15;31.54;100361.08;1715900;82;21003;-59
2022/06/27 07:58:43;;;;;;;6.20;4.10;;;;;;;35.21;31.91;100372.69;1715303;83;21153;-59
2022/06/27 08:01:19;;;;;;;7.97;3.70;;;;;;;35.34;31.08;100371.47;1716598;82;21605;-66
2022/06/27 08:03:50;;;;;;;9.00;4.25;;;;;;;35.32;30.13;100352.64;1683235;83;21088;-61
2022/06/27 08:06:23;;;;;;;6.83;4.03;;;;;;;35.23;30.98;100362.30;1718232;81;21058;-58
2022/06/27 08:08:57;;;;;;;6.78;4.05;;;;;;;35.25;31.31;100366.00;1724612;81;21047;-58
2022/06/27 08:11:26;;;;;;;6.78;3.40;;;;;;;35.37;31.17;100369.21;1723506;81;21528;-59
2022/06/27 08:13:57;;;;;;;5.75;3.58;;;;;;;35.29;30.55;100362.81;1725451;81;21133;-59
2022/06/27 08:16:26;;;;;;;4.50;3.20;;;;;;;35.09;30.35;100354.56;1722847;83;21082;-59
2022/06/27 08:18:53;;;;;;;5.90;3.98;;;;;;;34.95;30.61;100348.72;1724415;81;21073;-63
2022/06/27 08:21:25;;;;;;;8.85;4.58;;;;;;;34.81;31.05;100364.57;1724670;81;21595;-57
2022/06/27 08:23:53;;;;;;;3.98;2.92;;;;;;;34.65;31.21;100359.67;1724980;81;21552;-60
2022/06/27 08:26:22;;;;;;;4.85;2.70;;;;;;;34.52;30.76;100365.13;1725462;81;22193;-61
2022/06/27 08:28:53;;;;;;;4.83;3.10;;;;;;;34.33;30.97;100350.02;1724816;81;21403;-62
2022/06/27 08:31:21;;;;;;;4.60;3.08;;;;;;;34.25;31.99;100353.64;1724792;81;21713;-57
2022/06/27 08:33:49;;;;;;;4.97;2.50;;;;;;;34.50;31.56;100367.37;1724227;81;21009;-58
2022/06/27 08:36:17;;;;;;;3.90;2.40;;;;;;;34.67;30.57;100354.71;1724723;81;21074;-58
2022/06/27 08:38:50;;;;;;;5.08;2.80;;;;;;;34.61;31.10;100356.28;1724385;81;21259;-59
2022/06/27 08:41:19;;;;;;;4.08;2.80;;;;;;;34.66;31.03;100351.76;1725612;81;21376;-57
2022/06/27 08:43:48;;;;;;;5.65;2.80;;;;;;;34.61;30.50;100349.52;1723814;83;20990;-58
2022/06/27 08:46:16;;;;;;;4.92;2.85;;;;;;;34.61;30.23;100356.86;1725330;81;21081;-57
2022/06/27 08:48:45;;;;;;;3.75;2.70;;;;;;;34.54;30.00;100354.72;1724420;81;21126;-57
2022/06/27 08:51:13;;;;;;;6.10;3.62;;;;;;;34.49;30.02;100349.56;1726066;81;21100;-57
2022/06/27 08:53:41;;;;;;;6.20;3.20;;;;;;;34.31;30.28;100347.64;1725539;81;21007;-59
2022/06/27 08:56:13;;;;;;;4.97;3.00;;;;;;;34.20;31.02;100349.23;1724463;81;21563;-57
2022/06/27 08:58:42;;;;;;;6.62;4.60;;;;;;;34.16;30.50;100342.92;1723299;83;21650;-58
2022/06/27 09:01:09;;;;;;;6.12;4.35;;;;;;;34.10;30.83;100342.95;1725709;81;21705;-57
2022/06/27 09:03:37;;;;;;;6.00;4.12;;;;;;;34.26;32.55;100352.51;1725515;81;21137;-57
2022/06/27 09:06:06;;;;;;;5.20;3.83;;;;;;;34.56;30.60;100352.48;1725625;81;21551;-57
2022/06/27 09:08:40;;;;;;;7.20;4.20;;;;;;;34.78;30.66;100334.92;1714610;82;21046;-66
2022/06/27 09:11:07;;;;;;;6.42;4.20;;;;;;;34.90;29.18;100347.62;1709834;82;21077;-57
2022/06/27 09:13:34;;;;;;;6.80;4.20;;;;;;;34.77;29.69;100346.08;1716047;82;21077;-57
2022/06/27 09:16:03;;;;;;;5.58;4.10;;;;;;;34.59;30.21;100342.32;1711033;82;21204;-59
2022/06/27 09:18:36;;;;;;;7.55;4.28;;;;;;;34.66;29.86;100351.76;1716169;82;21099;-64
2022/06/27 09:21:08;;;;;;;7.67;5.67;;;;;;;34.52;29.03;100344.81;1715770;83;21931;-58
2022/06/27 09:23:58;;;;;;;8.25;5.30;;;;;;;34.31;30.23;100337.38;1716720;82;21492;-59
2022/06/27 09:26:28;;;;;;;9.23;5.28;;;;;;;34.43;30.73;100344.12;1712176;82;21398;-59
2022/06/27 09:29:02;;;;;;;6.20;5.03;;;;;;;34.46;30.61;100338.02;1715121;83;22149;-57
2022/06/27 09:31:36;;;;;;;8.60;5.40;;;;;;;34.32;30.25;100353.30;1703435;82;21023;-58
2022/06/27 09:34:23;;;;;;;7.45;4.75;;;;;;;34.17;30.56;100335.02;1708632;82;21114;-64
2022/06/27 09:36:55;;;;;;;5.75;4.83;;;;;;;34.19;30.69;100336.05;1714252;82;21031;-57
2022/06/27 09:39:35;;;;;;;9.13;5.28;;;;;;;34.28;31.03;100332.08;1714064;82;21117;-59
2022/06/27 09:42:09;;;;;;;;;;;;;;;34.35;30.19;100327.45;1716313;82;21212;-59
2022/06/27 09:44:39;;;;;;;7.05;5.33;;;;;;;34.37;30.60;100324.64;1709970;82;20489;-58
2022/06/27 09:47:18;;;;;;;9.43;5.25;;;;;;;34.50;30.48;100329.47;1708468;82;21038;-63
2022/06/27 09:49:49;;;;;;;7.50;4.80;;;;;;;34.56;30.45;100310.52;1709569;82;21124;-66
2022/06/27 09:52:17;;;;;;;;;;;;;;;34.82;30.86;100318.78;1695155;83;21895;-57
2022/06/27 09:54:46;;;;;;;8.65;6.95;;;;;;;35.10;29.70;100314.14;1710731;82;21809;-60
2022/06/27 09:57:13;;;;;;;11.25;4.90;;;;;;;35.05;29.21;100313.05;1712218;82;20944;-57
2022/06/27 09:59:42;;;;;;;5.70;4.12;;;;;;;34.94;30.07;100314.66;1683416;83;21427;-57
2022/06/27 10:02:09;;;;;;;5.70;4.42;;;;;;;34.95;30.81;100314.08;1713832;82;21067;-59
2022/06/27 10:04:37;;;;;;;7.42;4.75;;;;;;;35.04;28.76;100306.06;1715771;83;21527;-59
2022/06/27 10:07:08;;;;;;;9.93;7.25;;;;;;;35.12;29.42;100297.55;1705910;81;21150;-58
2022/06/27 10:09:37;;;;;;;8.13;6.62;;;;;;;35.14;28.79;100305.32;1720791;83;25018;-57
2022/06/27 10:12:31;;;;;;;10.58;6.90;;;;;;;35.14;30.20;100313.45;1721751;81;21500;-63
2022/06/27 10:15:17;;;;;;;9.15;6.55;;;;;;;35.30;29.60;100294.70;1721788;81;20993;-57
2022/06/27 10:17:50;;;;;;;8.50;7.45;;;;;;;35.49;29.22;100304.88;1720163;83;21524;-60
2022/06/27 10:20:37;;;;;;;9.13;7.10;;;;;;;35.30;29.73;100292.56;1721643;81;21204;-65
2022/06/27 10:23:31;;;;;;;8.53;6.53;;;;;;;35.20;30.49;100289.04;1707115;81;21073;-58
2022/06/27 10:25:59;;;;;;;6.55;5.58;;;;;;;35.06;30.11;100294.30;1721081;81;21011;-57
2022/06/27 10:28:26;;;;;;;7.67;5.62;;;;;;;34.94;29.67;100298.41;1695793;81;21093;-59
2022/06/27 10:30:59;;;;;;;7.25;5.10;;;;;;;34.99;29.62;100287.87;1721233;81;21702;-58
2022/06/27 10:33:33;;;;;;;8.23;5.62;;;;;;;35.08;29.71;100288.52;1699015;83;21239;-58
2022/06/27 10:36:24;;;;;;;8.03;6.15;;;;;;;35.15;29.13;100281.93;1722110;81;20970;-57
2022/06/27 10:38:39;;;;;;;12.47;6.70;;;;;;;35.30;29.28;100281.16;1706791;81;21088;-65
2022/06/27 10:41:11;;;;;;;7.50;6.58;;;;;;;35.50;28.82;100287.50;1722414;81;21471;-58
2022/06/27 10:43:50;;;;;;;8.05;6.53;;;;;;;35.52;28.96;100293.34;1721878;81;21444;-58
2022/06/27 10:46:22;;;;;;;8.95;5.60;;;;;;;35.39;28.10;100281.00;1720983;83;21187;-67
2022/06/27 10:48:55;;;;;;;9.03;5.97;;;;;;;35.40;29.71;100282.56;1714109;82;21467;-58
2022/06/27 10:51:33;;;;;;;8.13;6.03;;;;;;;35.40;28.28;100287.98;1721923;81;21070;-57
2022/06/27 10:54:08;;;;;;;7.60;5.35;;;;;;;35.16;28.13;100295.72;1722363;81;21055;-58
2022/06/27 10:56:45;;;;;;;6.15;4.47;;;;;;;34.93;28.91;100298.73;1711612;83;21143;-57
2022/06/27 10:59:19;;;;;;;7.03;5.12;;;;;;;34.83;28.94;100285.92;1722323;81;21519;-58
2022/06/27 11:01:57;;;;;;;8.20;5.10;;;;;;;35.09;28.67;100277.34;1721370;81;21513;-65
2022/06/27 11:04:30;;;;;;;8.85;4.97;;;;;;;35.15;28.40;100293.34;1720349;83;21088;-58
2022/06/27 11:07:05;;;;;;;5.67;3.70;;;;;;;34.92;29.77;100291.75;1721711;81;21070;-57
2022/06/27 11:09:46;;;;;;;6.83;4.45;;;;;;;34.84;28.05;100280.72;1720640;83;21339;-66
2022/06/27 11:12:19;;;;;;;7.53;5.85;;;;;;;34.76;27.38;100280.31;1721158;81;21124;-57
2022/06/27 11:14:53;;;;;;;7.55;6.12;;;;;;;34.79;28.49;100282.91;1719913;81;21086;-57
2022/06/27 11:17:45;;;;;;;8.43;6.62;;;;;;;34.84;28.75;100279.94;1721878;81;21567;-58
2022/06/27 11:20:25;;;;;;;7.92;6.10;;;;;;;34.95;28.19;100276.94;1720610;83;21710;-57
2022/06/27 11:22:58;;;;;;;9.80;6.60;;;;;;;35.08;28.94;100274.43;1709963;83;21497;-59
2022/06/27 11:25:29;;;;;;;10.00;7.08;;;;;;;35.43;28.34;100281.88;1712782;81;21466;-58
2022/06/27 11:33:35;;;;;;;6.35;4.60;;;;;;;35.38;27.88;100279.41;1657013;86;21023;-57
2022/06/27 11:36:03;;;;;;;6.90;5.10;;;;;;;35.34;28.19;100274.47;1688508;83;21468;-57
2022/06/27 11:38:47;;;;;;;12.95;8.05;;;;;;;35.26;28.28;100271.37;1687541;83;21749;-58
2022/06/27 11:41:17;;;;;;;8.80;6.95;;;;;;;35.25;28.03;100271.94;1673182;84;21111;-57
2022/06/27 11:44:04;;;;;;;11.50;8.15;;;;;;;35.26;28.06;100267.30;1661644;85;21050;-58